Time;durP1;ratioP1;P1;durP2;ratioP2;P2;SDS_P1;SDS_P2;PMS_P1;PMS_P2;Temp;Humidity;BMP_temperature;BMP_pressure;BME280_temperature;BME280_humidity;BME280_pressure;Samples;Min_cycle;Max_cycle;Signal;HPM_P1;HPM_P2
2022/11/19 00:00:18;;;;;;;;;9.00;7.67;;;;;;;;4912111;28;45391;-83
2022/11/19 00:02:44;;;;;;;;;6.00;6.00;;;;;;;;4918431;28;46318;-84
2022/11/19 00:05:09;;;;;;;;;8.67;7.67;;;;;;;;4918795;28;45313;-83
2022/11/19 00:07:34;;;;;;;;;7.00;6.00;;;;;;;;4910316;28;45695;-83
2022/11/19 00:10:00;;;;;;;;;8.67;7.00;;;;;;;;4917631;28;45632;-82
2022/11/19 00:15:09;;;;;;;;;6.00;6.00;;;;;;;;4917812;28;45691;-83
2022/11/19 00:17:34;;;;;;;;;8.00;6.00;;;;;;;;4913040;28;45558;-83
2022/11/19 00:19:59;;;;;;;;;7.00;7.00;;;;;;;;4918982;28;45430;-84
2022/11/19 00:22:25;;;;;;;;;11.33;9.00;;;;;;;;4891515;28;47866;-83
2022/11/19 00:24:50;;;;;;;;;9.00;7.00;;;;;;;;4918046;28;45481;-84
2022/11/19 00:27:15;;;;;;;;;9.00;8.00;;;;;;;;4915165;28;45481;-84
2022/11/19 00:29:40;;;;;;;;;7.00;7.00;;;;;;;;4900648;28;45406;-84
2022/11/19 00:32:06;;;;;;;;;12.00;8.00;;;;;;;;4911998;28;46352;-85
2022/11/19 00:34:31;;;;;;;;;10.67;7.00;;;;;;;;4912368;28;45497;-83
2022/11/19 00:36:56;;;;;;;;;10.67;7.33;;;;;;;;4906740;28;46255;-83
2022/11/19 00:39:21;;;;;;;;;9.33;8.33;;;;;;;;4910648;28;45510;-83
2022/11/19 00:41:47;;;;;;;;;11.00;7.00;;;;;;;;4908057;28;46261;-84
2022/11/19 00:44:12;;;;;;;;;9.33;7.00;;;;;;;;4921543;28;45780;-83
2022/11/19 00:46:37;;;;;;;;;6.00;6.00;;;;;;;;4912603;28;45540;-83
2022/11/19 00:49:03;;;;;;;;;5.67;5.00;;;;;;;;4918785;28;45495;-83
2022/11/19 00:51:29;;;;;;;;;4.00;4.00;;;;;;;;4918037;28;46546;-83
2022/11/19 00:53:55;;;;;;;;;5.33;4.67;;;;;;;;4911020;28;45630;-83
2022/11/19 00:56:21;;;;;;;;;7.00;5.67;;;;;;;;4911111;28;45524;-84
2022/11/19 00:58:47;;;;;;;;;7.33;6.00;;;;;;;;4915285;28;45406;-83
2022/11/19 01:01:13;;;;;;;;;6.67;6.00;;;;;;;;4889069;28;48259;-82
2022/11/19 01:03:39;;;;;;;;;6.00;6.00;;;;;;;;4909759;28;45422;-84
2022/11/19 01:06:05;;;;;;;;;6.00;6.00;;;;;;;;4917868;28;45513;-83
2022/11/19 01:08:30;;;;;;;;;5.00;5.00;;;;;;;;4904582;28;45416;-83
2022/11/19 01:11:02;;;;;;;;;7.33;6.00;;;;;;;;4895271;28;47325;-84
2022/11/19 01:13:33;;;;;;;;;6.67;5.00;;;;;;;;4913895;28;45630;-84
2022/11/19 01:15:59;;;;;;;;;5.00;5.00;;;;;;;;4914252;28;45751;-83
2022/11/19 01:18:25;;;;;;;;;5.67;4.33;;;;;;;;4920791;28;45603;-84
2022/11/19 01:20:51;;;;;;;;;6.33;6.33;;;;;;;;4909414;28;46172;-83
2022/11/19 01:23:16;;;;;;;;;6.00;6.00;;;;;;;;4912752;28;45449;-84
2022/11/19 01:25:41;;;;;;;;;6.67;5.00;;;;;;;;4911529;28;45566;-84
2022/11/19 01:28:07;;;;;;;;;6.67;5.00;;;;;;;;4922004;28;45513;-83
2022/11/19 01:30:32;;;;;;;;;6.00;5.00;;;;;;;;4921065;28;45547;-83
2022/11/19 01:32:57;;;;;;;;;3.67;3.33;;;;;;;;4915474;28;45578;-83
2022/11/19 01:35:22;;;;;;;;;6.67;6.67;;;;;;;;4915028;28;45892;-84
2022/11/19 01:37:48;;;;;;;;;7.33;7.00;;;;;;;;4913730;28;45470;-84
2022/11/19 01:40:13;;;;;;;;;6.00;6.00;;;;;;;;4920436;28;47324;-84
2022/11/19 01:42:52;;;;;;;;;5.00;3.67;;;;;;;;4917863;28;45746;-83
2022/11/19 01:45:36;;;;;;;;;6.33;5.33;;;;;;;;4906064;28;45599;-83
2022/11/19 01:48:05;;;;;;;;;6.00;3.00;;;;;;;;4921286;28;45642;-83
2022/11/19 01:50:32;;;;;;;;;9.67;5.67;;;;;;;;4920946;28;45724;-83
2022/11/19 01:52:57;;;;;;;;;3.33;3.33;;;;;;;;4915711;28;45441;-83
2022/11/19 01:55:23;;;;;;;;;5.33;5.33;;;;;;;;4914201;28;45775;-83
2022/11/19 01:57:53;;;;;;;;;6.00;6.00;;;;;;;;4920988;28;45606;-83
2022/11/19 02:00:18;;;;;;;;;4.67;4.33;;;;;;;;4920720;28;46490;-84
2022/11/19 02:02:43;;;;;;;;;5.67;5.00;;;;;;;;4918822;28;45639;-84
2022/11/19 02:05:09;;;;;;;;;7.00;5.33;;;;;;;;4921020;28;45460;-82
2022/11/19 02:07:35;;;;;;;;;6.00;5.00;;;;;;;;4920593;28;45474;-84
2022/11/19 02:10:02;;;;;;;;;5.00;4.67;;;;;;;;4918824;28;47116;-83
2022/11/19 02:12:27;;;;;;;;;6.00;5.00;;;;;;;;4907225;28;45612;-84
2022/11/19 02:15:11;;;;;;;;;4.33;4.33;;;;;;;;4919678;28;45461;-83
2022/11/19 02:17:51;;;;;;;;;2.00;2.00;;;;;;;;4916963;28;45390;-82
2022/11/19 02:20:31;;;;;;;;;5.33;5.33;;;;;;;;4920228;28;46660;-83
2022/11/19 02:23:03;;;;;;;;;6.67;5.00;;;;;;;;4919088;28;45350;-84
2022/11/19 02:25:41;;;;;;;;;6.00;5.00;;;;;;;;4918474;28;45568;-84
2022/11/19 02:28:09;;;;;;;;;7.00;5.00;;;;;;;;4919424;28;46300;-84
2022/11/19 02:30:37;;;;;;;;;5.33;5.33;;;;;;;;4919393;28;46452;-83
2022/11/19 02:33:06;;;;;;;;;6.33;5.00;;;;;;;;4911288;28;45615;-83
2022/11/19 02:35:45;;;;;;;;;8.67;6.00;;;;;;;;4919806;28;45470;-82
2022/11/19 02:38:31;;;;;;;;;6.00;4.00;;;;;;;;4920692;28;45763;-83
2022/11/19 02:44:57;;;;;;;;;5.00;5.00;;;;;;;;4896444;29;45782;-82
2022/11/19 02:46:46;;;;;;;;;6.00;5.00;;;;;;;;4898215;29;45544;-83
2022/11/19 02:49:12;;;;;;;;;6.00;5.00;;;;;;;;4881211;29;45538;-82
2022/11/19 02:51:37;;;;;;;;;7.33;6.33;;;;;;;;4897718;29;46113;-84
2022/11/19 02:54:03;;;;;;;;;7.00;5.33;;;;;;;;4898660;29;45512;-82
2022/11/19 02:56:45;;;;;;;;;6.33;5.00;;;;;;;;4889527;29;45902;-83
2022/11/19 03:04:42;;;;;;;;;6.33;4.33;;;;;;;;4894966;29;45645;-83
2022/11/19 03:07:14;;;;;;;;;3.33;3.33;;;;;;;;4896775;29;45806;-83
2022/11/19 03:10:00;;;;;;;;;4.00;3.00;;;;;;;;4882409;29;45407;-83
2022/11/19 03:12:47;;;;;;;;;1.00;1.00;;;;;;;;4896972;29;45439;-83
2022/11/19 03:18:08;;;;;;;;;5.00;5.00;;;;;;;;4897671;28;45574;-83
2022/11/19 03:20:41;;;;;;;;;4.67;4.00;;;;;;;;4909070;28;45580;-83
2022/11/19 03:23:20;;;;;;;;;3.00;3.00;;;;;;;;4919540;28;45686;-83
2022/11/19 03:25:48;;;;;;;;;4.00;3.00;;;;;;;;4901381;28;45519;-83
2022/11/19 03:28:18;;;;;;;;;6.00;5.00;;;;;;;;4914498;28;45629;-83
2022/11/19 03:30:45;;;;;;;;;6.33;5.33;;;;;;;;4918872;28;45616;-83
2022/11/19 03:33:22;;;;;;;;;7.00;5.00;;;;;;;;4918811;28;46314;-83
2022/11/19 03:35:50;;;;;;;;;6.00;4.00;;;;;;;;4894940;29;45909;-84
2022/11/19 03:38:19;;;;;;;;;3.67;3.00;;;;;;;;4917982;28;45571;-83
2022/11/19 03:40:46;;;;;;;;;6.00;4.67;;;;;;;;4917967;28;45504;-84
2022/11/19 03:43:14;;;;;;;;;6.67;5.00;;;;;;;;4919050;28;46867;-82
2022/11/19 03:45:42;;;;;;;;;4.33;4.33;;;;;;;;4915387;28;45405;-82
2022/11/19 03:48:08;;;;;;;;;3.67;3.67;;;;;;;;4919090;28;45445;-83
2022/11/19 03:50:42;;;;;;;;;6.33;4.00;;;;;;;;4919423;28;45512;-84
2022/11/19 03:53:07;;;;;;;;;6.00;4.33;;;;;;;;4892370;28;47142;-82
2022/11/19 03:55:43;;;;;;;;;7.00;6.00;;;;;;;;4913909;28;45418;-84
2022/11/19 03:58:09;;;;;;;;;4.33;4.33;;;;;;;;4911279;28;45616;-84
2022/11/19 04:00:35;;;;;;;;;7.00;5.33;;;;;;;;4918990;28;45457;-83
2022/11/19 04:03:00;;;;;;;;;7.67;5.00;;;;;;;;4918887;28;47307;-83
2022/11/19 04:05:25;;;;;;;;;3.33;3.33;;;;;;;;4916212;28;45519;-83
2022/11/19 04:07:51;;;;;;;;;2.00;2.00;;;;;;;;4910864;28;45382;-84
2022/11/19 04:10:16;;;;;;;;;5.00;5.00;;;;;;;;4918208;28;45553;-83
2022/11/19 04:12:41;;;;;;;;;4.00;3.67;;;;;;;;4917979;28;46083;-83
2022/11/19 04:15:08;;;;;;;;;6.33;4.00;;;;;;;;4915164;28;45463;-84
2022/11/19 04:17:33;;;;;;;;;3.00;3.00;;;;;;;;4900055;28;45413;-83
2022/11/19 04:19:59;;;;;;;;;4.00;2.00;;;;;;;;4918111;28;45636;-83
2022/11/19 04:22:24;;;;;;;;;4.33;4.33;;;;;;;;4918536;28;45511;-83
2022/11/19 04:24:49;;;;;;;;;4.33;3.00;;;;;;;;4905132;28;45536;-82
2022/11/19 04:27:14;;;;;;;;;4.00;3.00;;;;;;;;4910857;28;45470;-83
2022/11/19 04:29:39;;;;;;;;;4.00;2.67;;;;;;;;4918967;28;45471;-83
2022/11/19 04:32:05;;;;;;;;;6.00;4.00;;;;;;;;4918065;28;46505;-83
2022/11/19 04:34:30;;;;;;;;;3.00;3.00;;;;;;;;4918692;28;45352;-83
2022/11/19 04:36:55;;;;;;;;;5.33;3.00;;;;;;;;4911993;28;45449;-83
2022/11/19 04:39:20;;;;;;;;;5.00;3.00;;;;;;;;4917097;28;45541;-83
2022/11/19 04:41:46;;;;;;;;;2.00;2.00;;;;;;;;4918521;28;46232;-84
2022/11/19 04:44:11;;;;;;;;;3.67;3.67;;;;;;;;4912961;28;45452;-83
2022/11/19 04:46:36;;;;;;;;;3.67;3.67;;;;;;;;4910807;28;45460;-83
2022/11/19 04:49:01;;;;;;;;;4.00;4.00;;;;;;;;4913631;28;45539;-82
2022/11/19 04:51:27;;;;;;;;;3.00;3.00;;;;;;;;4917206;28;48199;-83
2022/11/19 04:53:53;;;;;;;;;5.00;3.00;;;;;;;;4917925;28;45487;-84
2022/11/19 04:56:18;;;;;;;;;7.67;4.67;;;;;;;;4914887;28;45468;-83
2022/11/19 04:58:43;;;;;;;;;3.33;3.00;;;;;;;;4916763;28;45360;-84
2022/11/19 05:01:08;;;;;;;;;4.00;3.00;;;;;;;;4915993;28;46287;-84
2022/11/19 05:03:34;;;;;;;;;5.00;4.00;;;;;;;;4917952;28;46081;-82
2022/11/19 05:05:59;;;;;;;;;5.33;4.00;;;;;;;;4918339;28;45410;-83
2022/11/19 05:08:24;;;;;;;;;4.00;4.00;;;;;;;;4917775;28;45469;-83
2022/11/19 05:10:49;;;;;;;;;4.67;4.00;;;;;;;;4916127;28;45523;-83
2022/11/19 05:13:15;;;;;;;;;4.67;4.00;;;;;;;;4907021;28;45653;-82
2022/11/19 05:15:40;;;;;;;;;5.33;4.00;;;;;;;;4908761;28;45889;-82
2022/11/19 05:18:06;;;;;;;;;5.67;4.00;;;;;;;;4909036;28;45548;-82
2022/11/19 05:20:32;;;;;;;;;4.00;4.00;;;;;;;;4918036;28;45488;-82
2022/11/19 05:22:57;;;;;;;;;6.00;4.00;;;;;;;;4917613;28;45471;-83
2022/11/19 05:25:23;;;;;;;;;4.00;4.00;;;;;;;;4912583;28;45531;-82
2022/11/19 05:27:48;;;;;;;;;3.67;3.67;;;;;;;;4917960;28;45493;-83
2022/11/19 05:30:14;;;;;;;;;5.00;4.00;;;;;;;;4917169;28;45354;-83
2022/11/19 05:32:40;;;;;;;;;4.00;4.00;;;;;;;;4915343;28;45683;-83
2022/11/19 05:35:06;;;;;;;;;3.33;3.33;;;;;;;;4908635;28;45569;-82
2022/11/19 05:37:31;;;;;;;;;5.00;4.00;;;;;;;;4915557;28;45485;-82
2022/11/19 05:39:56;;;;;;;;;4.00;4.00;;;;;;;;4917776;28;46466;-82
2022/11/19 05:42:22;;;;;;;;;4.67;3.33;;;;;;;;4917750;28;45701;-83
2022/11/19 05:44:47;;;;;;;;;4.33;4.33;;;;;;;;4900424;28;45631;-83
2022/11/19 05:47:14;;;;;;;;;4.67;3.67;;;;;;;;4918071;28;45448;-82
2022/11/19 05:49:40;;;;;;;;;4.67;4.00;;;;;;;;4908587;28;46971;-82
2022/11/19 05:52:05;;;;;;;;;4.67;3.67;;;;;;;;4916529;28;45474;-83
2022/11/19 05:54:31;;;;;;;;;6.00;5.00;;;;;;;;4891470;29;45452;-83
2022/11/19 05:56:56;;;;;;;;;5.33;4.00;;;;;;;;4914490;28;45476;-83
2022/11/19 05:59:21;;;;;;;;;6.67;4.00;;;;;;;;4917263;28;45638;-82
2022/11/19 06:01:46;;;;;;;;;3.67;3.67;;;;;;;;4916090;28;45412;-84
2022/11/19 06:04:11;;;;;;;;;6.67;4.67;;;;;;;;4919812;28;45484;-84
2022/11/19 06:06:37;;;;;;;;;3.67;3.67;;;;;;;;4911349;28;45548;-84
2022/11/19 06:09:02;;;;;;;;;5.00;4.00;;;;;;;;4917264;28;46462;-83
2022/11/19 06:14:11;;;;;;;;;2.67;2.67;;;;;;;;4911886;28;45450;-83
2022/11/19 06:16:36;;;;;;;;;4.67;4.67;;;;;;;;4914301;28;45445;-83
2022/11/19 06:19:01;;;;;;;;;4.33;4.33;;;;;;;;4904729;28;46469;-82
2022/11/19 06:21:26;;;;;;;;;3.67;3.67;;;;;;;;4930922;28;45443;-83
2022/11/19 06:23:52;;;;;;;;;4.00;4.00;;;;;;;;4924979;28;45566;-82
2022/11/19 06:26:24;;;;;;;;;7.33;5.33;;;;;;;;4915454;28;45585;-82
2022/11/19 06:28:49;;;;;;;;;5.00;4.00;;;;;;;;4917601;28;45572;-83
2022/11/19 06:31:15;;;;;;;;;4.67;4.33;;;;;;;;4904676;28;45895;-83
2022/11/19 06:33:40;;;;;;;;;7.33;5.00;;;;;;;;4914618;28;45658;-83
2022/11/19 06:36:05;;;;;;;;;9.00;7.67;;;;;;;;4926932;28;45331;-83
2022/11/19 06:38:30;;;;;;;;;11.00;10.00;;;;;;;;4920224;28;46390;-83
2022/11/19 06:40:56;;;;;;;;;7.67;7.67;;;;;;;;4919943;28;45954;-83
2022/11/19 06:43:21;;;;;;;;;8.00;6.00;;;;;;;;4919821;28;45438;-83
2022/11/19 06:45:46;;;;;;;;;8.67;6.00;;;;;;;;4920264;28;45491;-83
2022/11/19 06:48:11;;;;;;;;;7.67;7.00;;;;;;;;4921702;28;46332;-84
2022/11/19 06:50:37;;;;;;;;;5.00;5.00;;;;;;;;4907575;28;45552;-84
2022/11/19 06:53:02;;;;;;;;;7.67;5.33;;;;;;;;4920058;28;46299;-83
2022/11/19 06:55:27;;;;;;;;;6.00;6.00;;;;;;;;4919742;28;45459;-83
2022/11/19 06:57:52;;;;;;;;;8.00;6.67;;;;;;;;4920642;28;46326;-84
2022/11/19 07:00:18;;;;;;;;;6.00;6.00;;;;;;;;4914696;28;45478;-84
2022/11/19 07:02:43;;;;;;;;;7.00;6.00;;;;;;;;4930911;28;45667;-83
2022/11/19 07:17:29;;;;;;;;;6.67;6.67;;;;;;;;4823586;29;46148;-83
2022/11/19 07:19:54;;;;;;;;;9.00;7.00;;;;;;;;4806331;29;45613;-84
2022/11/19 07:25:33;;;;;;;;;8.00;8.00;;;;;;;;4816705;29;46393;-84
2022/11/19 07:27:58;;;;;;;;;6.00;6.00;;;;;;;;4820994;29;45747;-84
2022/11/19 07:30:23;;;;;;;;;6.67;6.00;;;;;;;;4818471;29;48137;-82
2022/11/19 07:33:00;;;;;;;;;6.67;6.67;;;;;;;;4822580;29;45970;-83
2022/11/19 07:35:25;;;;;;;;;7.33;6.33;;;;;;;;4824966;29;45454;-87
2022/11/19 07:37:54;;;;;;;;;6.00;6.00;;;;;;;;4799705;29;45562;-90
2022/11/19 07:40:32;;;;;;;;;;;;;;;;;;;;;
2022/11/19 07:48:54;;;;;;;;;8.00;6.00;;;;;;;;4849290;29;45698;-85
2022/11/19 07:51:20;;;;;;;;;7.33;5.00;;;;;;;;4879866;29;46191;-84
2022/11/19 07:53:45;;;;;;;;;13.00;8.00;;;;;;;;4891785;28;45540;-85
2022/11/19 07:56:10;;;;;;;;;7.00;7.00;;;;;;;;4880629;29;45376;-84
2022/11/19 07:58:36;;;;;;;;;10.67;9.00;;;;;;;;4894513;28;45585;-85
2022/11/19 08:01:17;;;;;;;;;8.00;7.67;;;;;;;;4900380;28;45997;-85
2022/11/19 08:06:45;;;;;;;;;8.00;6.33;;;;;;;;4896492;28;45845;-87
2022/11/19 08:09:11;;;;;;;;;7.00;6.00;;;;;;;;4969622;23;45674;-92
2022/11/19 08:11:58;;;;;;;;;7.00;6.00;;;;;;;;4881931;29;46126;-89
2022/11/19 08:15:01;;;;;;;;;7.00;7.00;;;;;;;;4888616;29;45430;-86
2022/11/19 08:20:17;;;;;;;;;35.67;20.00;;;;;;;;4803811;29;45391;-87
2022/11/19 08:22:57;;;;;;;;;7.67;7.00;;;;;;;;4787860;29;46941;-85
2022/11/19 08:25:22;;;;;;;;;8.67;8.67;;;;;;;;4800123;29;45798;-79
2022/11/19 08:27:47;;;;;;;;;7.00;7.00;;;;;;;;4797156;29;45518;-85
2022/11/19 08:30:25;;;;;;;;;6.00;6.00;;;;;;;;4779606;29;47540;-90
2022/11/19 08:32:53;;;;;;;;;7.33;6.33;;;;;;;;4808534;29;47250;-92
2022/11/19 08:35:18;;;;;;;;;10.00;10.00;;;;;;;;4919666;23;45428;-86
2022/11/19 08:37:45;;;;;;;;;9.33;8.00;;;;;;;;4899717;29;45752;-89
2022/11/19 08:40:10;;;;;;;;;7.33;7.00;;;;;;;;4898979;29;45677;-86
2022/11/19 08:45:21;;;;;;;;;10.00;8.33;;;;;;;;4902462;29;45330;-86
2022/11/19 08:47:46;;;;;;;;;8.67;8.33;;;;;;;;4894764;29;45623;-82
2022/11/19 08:50:11;;;;;;;;;8.00;8.00;;;;;;;;4896719;28;45630;-84
2022/11/19 08:52:36;;;;;;;;;12.33;9.67;;;;;;;;4899863;28;46652;-85
2022/11/19 08:55:02;;;;;;;;;7.00;7.00;;;;;;;;4904694;28;45605;-86
2022/11/19 08:57:33;;;;;;;;;9.33;9.33;;;;;;;;4901270;28;45484;-91
2022/11/19 08:59:58;;;;;;;;;14.00;11.67;;;;;;;;4908566;28;45577;-93
2022/11/19 09:02:23;;;;;;;;;10.67;10.67;;;;;;;;4903602;28;45523;-84
2022/11/19 09:04:49;;;;;;;;;9.67;9.00;;;;;;;;4882023;29;45582;-87
2022/11/19 09:10:26;;;;;;;;;7.67;7.67;;;;;;;;4905033;28;45435;-94
2022/11/19 09:12:52;;;;;;;;;8.00;4.00;;;;;;;;4897104;28;45621;-86
2022/11/19 09:15:24;;;;;;;;;8.67;8.33;;;;;;;;4899233;28;45456;-91
2022/11/19 09:21:12;;;;;;;;;6.33;6.00;;;;;;;;4904856;23;45507;-95
2022/11/19 09:23:38;;;;;;;;;8.00;6.67;;;;;;;;4847879;29;45683;-86
2022/11/19 09:26:07;;;;;;;;;5.00;5.00;;;;;;;;4901608;28;45550;-85
2022/11/19 09:28:32;;;;;;;;;8.00;6.67;;;;;;;;4900743;28;45551;-87
2022/11/19 09:30:59;;;;;;;;;7.33;6.00;;;;;;;;4886166;28;45476;-82
2022/11/19 09:33:24;;;;;;;;;6.33;6.33;;;;;;;;4880519;29;48537;-89
2022/11/19 09:35:50;;;;;;;;;7.00;7.00;;;;;;;;4898320;28;45444;-85
2022/11/19 09:38:21;;;;;;;;;9.33;8.00;;;;;;;;4899524;28;45573;-85
2022/11/19 09:40:55;;;;;;;;;7.67;7.33;;;;;;;;4903059;28;45622;-96
2022/11/19 09:43:41;;;;;;;;;9.67;8.67;;;;;;;;4907593;28;46468;-93
2022/11/19 09:46:13;;;;;;;;;10.67;10.33;;;;;;;;4893514;28;46215;-86
2022/11/19 09:50:31;;;;;;;;;5.00;5.00;;;;;11.93;73.98;-19530.47;5077667;27;45478;-90
2022/11/19 09:53:06;;;;;;;;;9.00;8.00;;;;;11.52;74.43;-19519.81;5070985;28;45928;-90
2022/11/19 09:55:35;;;;;;;;;9.67;9.67;;;;;11.56;74.71;-19520.88;5072463;27;46196;-90
2022/11/19 09:58:06;;;;;;;;;12.00;9.67;;;;;11.75;74.56;-19525.88;5057350;28;45532;-91
2022/11/19 10:00:32;;;;;;;;;8.00;8.00;;;;;11.82;74.06;-19527.63;5059325;27;45945;-90
2022/11/19 10:03:01;;;;;;;;;11.33;9.00;;;;;12.58;73.97;-19547.56;5061579;28;45921;-90
2022/11/19 10:05:40;;;;;;;;;10.33;10.33;;;;;11.34;73.59;-19515.09;5057807;27;45486;-91
2022/11/19 10:08:33;;;;;;;;;10.00;8.00;;;;;12.76;74.01;-19552.41;5065137;27;45631;-93
2022/11/19 10:11:02;;;;;;;;;15.33;10.33;;;;;12.89;73.44;-19555.78;5066583;28;47197;-94
2022/11/19 10:14:09;;;;;;;;;10.00;8.67;;;;;12.99;72.97;-19558.47;5083369;22;45919;-94
2022/11/19 10:16:46;;;;;;;;;8.67;8.00;;;;;13.06;72.99;-19560.34;4983200;28;45627;-89
2022/11/19 10:19:24;;;;;;;;;8.67;6.67;;;;;13.13;72.64;-19562.09;4990303;28;45668;-90
2022/11/19 10:22:48;;;;;;;;;53.00;41.00;;;;;12.35;72.91;-19541.50;4981234;28;46603;-90
2022/11/19 10:25:17;;;;;;;;;31.00;29.00;;;;;11.78;72.38;-19526.69;4987503;28;45522;-91
2022/11/19 10:28:12;;;;;;;;;20.67;19.33;;;;;12.56;72.28;-19547.03;4981802;28;45474;-88
2022/11/19 10:30:40;;;;;;;;;14.67;12.33;;;;;12.95;72.05;-19557.38;4980895;28;45776;-91
2022/11/19 10:36:00;;;;;;;;;10.00;7.67;;;;;12.76;72.42;-19552.28;5075669;22;45561;-96
2022/11/19 10:38:44;;;;;;;;;11.67;10.00;;;;;12.56;72.43;-19547.16;5069593;28;45469;-88
2022/11/19 10:41:29;;;;;;;;;10.00;10.00;;;;;12.52;72.59;-19545.94;5071217;28;45421;-88
2022/11/19 10:44:00;;;;;;;;;8.67;7.00;;;;;12.68;72.01;-19550.38;5052247;27;47160;-85
2022/11/19 10:46:27;;;;;;;;;8.00;8.00;;;;;13.54;71.91;-19572.72;5051715;28;46006;-86
2022/11/19 10:49:00;;;;;;;;;6.33;6.33;;;;;13.82;71.17;-19580.13;5070188;28;46491;-86
2022/11/19 10:51:29;;;;;;;;;6.00;6.00;;;;;12.86;71.29;-19555.09;5068127;28;45454;-85
2022/11/19 10:53:56;;;;;;;;;1.00;0.00;;;;;13.84;71.29;-19580.78;5069635;28;46565;-86
2022/11/19 10:56:33;;;;;;;;;9.67;8.33;;;;;13.78;71.21;-19579.03;5070468;28;45858;-86
2022/11/19 10:59:06;;;;;;;;;10.67;7.67;;;;;13.74;70.78;-19578.09;5068970;28;45467;-86
2022/11/19 11:01:35;;;;;;;;;11.00;8.00;;;;;14.15;70.85;-19588.84;5057796;28;45535;-86
2022/11/19 11:04:18;;;;;;;;;6.33;6.33;;;;;13.66;70.48;-19575.94;5051437;28;46748;-87
2022/11/19 11:06:56;;;;;;;;;9.67;9.33;;;;;14.19;70.35;-19589.94;5053690;28;45686;-87
2022/11/19 11:09:39;;;;;;;;;8.00;7.67;;;;;14.07;70.40;-19586.84;5056107;28;45777;-86
2022/11/19 11:15:20;;;;;;;;;7.33;6.33;;;;;14.30;69.80;-19592.88;5055238;28;45602;-84
2022/11/19 11:17:47;;;;;;;;;7.33;7.00;;;;;13.56;69.78;-19573.25;5045351;28;45668;-87
2022/11/19 11:20:13;;;;;;;;;8.33;8.33;;;;;14.17;69.37;-19589.38;5051822;28;45677;-89
2022/11/19 11:22:38;;;;;;;;;10.00;10.00;;;;;13.34;69.87;-19567.47;5057192;28;45382;-88
2022/11/19 11:25:19;;;;;;;;;7.67;7.67;;;;;13.39;70.22;-19568.97;5056650;28;45457;-89
2022/11/19 11:27:44;;;;;;;;;7.00;7.00;;;;;13.27;70.02;-19565.72;5055972;28;45867;-87
2022/11/19 11:30:13;;;;;;;;;8.67;8.67;;;;;13.93;69.94;-19583.06;5052047;28;45623;-87
2022/11/19 11:32:39;;;;;;;;;11.00;9.00;;;;;13.94;70.21;-19583.47;5056840;28;45458;-88
2022/11/19 11:35:25;;;;;;;;;11.67;10.00;;;;;13.99;70.63;-19584.56;5054936;28;47381;-86
2022/11/19 11:38:24;;;;;;;;;10.00;7.00;;;;;14.08;69.55;-19587.09;5055112;28;45472;-86
2022/11/19 11:41:08;;;;;;;;;8.67;8.00;;;;;13.89;69.58;-19582.00;5057572;28;45461;-82
2022/11/19 11:44:00;;;;;;;;;9.33;7.00;;;;;13.90;68.79;-19582.25;5055238;28;45559;-87
2022/11/19 11:46:34;;;;;;;;;7.33;6.67;;;;;14.61;68.45;-19600.81;5054281;28;47162;-89
2022/11/19 11:49:00;;;;;;;;;7.33;5.67;;;;;14.00;68.30;-19584.94;5053954;28;45868;-87
2022/11/19 11:51:40;;;;;;;;;6.67;4.33;;;;;14.57;67.94;-19600.00;5057379;28;45520;-89
2022/11/19 11:54:15;;;;;;;;;5.67;5.67;;;;;14.78;67.63;-19605.50;5057419;28;45378;-87
2022/11/19 11:56:43;;;;;;;;;4.00;2.00;;;;;14.84;67.87;-19606.84;5056816;28;47114;-90
2022/11/19 11:59:36;;;;;;;;;8.33;4.67;;;;;14.93;67.60;-19609.41;5040493;28;45540;-85
2022/11/19 12:02:05;;;;;;;;;8.00;7.67;;;;;14.75;67.17;-19604.69;5053314;28;45661;-85
2022/11/19 12:04:34;;;;;;;;;8.33;8.00;;;;;15.14;67.49;-19614.91;5035818;28;45526;-86
2022/11/19 12:07:33;;;;;;;;;10.00;8.67;;;;;15.37;67.24;-19620.81;5049222;28;46493;-85
2022/11/19 12:10:33;;;;;;;;;9.00;7.67;;;;;15.48;66.23;-19623.75;5054393;28;45675;-87
2022/11/19 12:15:57;;;;;;;;;5.00;5.00;;;;;15.66;65.32;-19628.31;5090188;22;58105;-83
2022/11/19 12:24:50;;;;;;;;;3.67;2.67;;;;;15.87;63.21;-19633.81;5262643;22;67831;-87
2022/11/19 12:27:38;;;;;;;;;2.33;2.33;;;;;14.93;63.05;-19609.41;5089203;22;46623;-88
2022/11/19 12:30:22;;;;;;;;;6.00;3.00;;;;;15.87;62.46;-19633.94;5048387;28;46685;-86
2022/11/19 12:33:15;;;;;;;;;2.67;2.67;;;;;16.07;62.62;-19639.03;5051720;28;46315;-85
2022/11/19 12:36:18;;;;;;;;;2.00;2.00;;;;;16.14;62.80;-19641.06;5052400;28;45563;-84
2022/11/19 12:39:12;;;;;;;;;4.67;3.67;;;;;14.64;62.33;-19601.75;5052872;28;45505;-86
2022/11/19 12:42:14;;;;;;;;;4.00;4.00;;;;;16.24;62.29;-19643.72;5046358;28;46117;-87
2022/11/19 12:45:02;;;;;;;;;14.33;10.00;;;;;15.69;62.10;-19629.25;5055672;28;45402;-85
2022/11/19 12:47:59;;;;;;;;;6.00;6.00;;;;;15.59;62.25;-19626.56;5055885;28;45427;-85
2022/11/19 12:51:00;;;;;;;;;3.67;3.67;;;;;15.72;62.28;-19630.06;5051784;28;45346;-84
2022/11/19 12:53:43;;;;;;;;;4.00;2.67;;;;;15.48;62.15;-19623.75;5049106;28;45508;-83
2022/11/19 12:56:21;;;;;;;;;1.00;1.00;;;;;16.62;61.06;-19653.50;5052770;28;45737;-87
2022/11/19 12:59:26;;;;;;;;;1.00;1.00;;;;;16.74;60.61;-19656.72;5024248;28;45404;-87
2022/11/19 13:02:02;;;;;;;;;1.00;1.00;;;;;15.47;60.39;-19623.47;5037575;28;45402;-88
2022/11/19 13:04:50;;;;;;;;;2.33;2.33;;;;;16.49;60.16;-19650.03;5052183;28;46370;-86
2022/11/19 13:07:39;;;;;;;;;2.00;1.00;;;;;15.65;59.08;-19628.03;5055258;28;45579;-91
2022/11/19 13:10:17;;;;;;;;;1.67;1.67;;;;;16.50;59.00;-19650.28;5055509;28;45731;-86
2022/11/19 13:12:49;;;;;;;;;2.00;2.00;;;;;15.89;59.29;-19634.34;5055754;28;45510;-89
2022/11/19 13:15:43;;;;;;;;;2.00;2.00;;;;;16.42;59.55;-19648.28;5052961;28;48296;-89
2022/11/19 13:18:14;;;;;;;;;4.00;2.33;;;;;16.24;59.66;-19643.59;5054658;28;45528;-88
2022/11/19 13:20:54;;;;;;;;;4.00;2.00;;;;;16.31;60.01;-19645.34;5055030;28;45405;-85
2022/11/19 13:23:32;;;;;;;;;0.00;0.00;;;;;15.70;60.74;-19629.53;5051583;28;45437;-88
2022/11/19 13:26:08;;;;;;;;;2.67;1.67;;;;;16.23;60.95;-19643.47;5050428;28;47647;-90
2022/11/19 13:28:58;;;;;;;;;2.00;1.00;;;;;16.13;60.89;-19640.78;5054252;28;45576;-88
2022/11/19 13:31:32;;;;;;;;;2.00;1.00;;;;;15.76;60.75;-19631.00;5054539;28;45567;-89
2022/11/19 13:36:47;;;;;;;;;4.67;4.00;;;;;15.59;61.32;-19626.56;5356190;22;45911;-88
2022/11/19 13:39:28;;;;;;;;;0.00;0.00;;;;;16.06;60.69;-19638.78;5033270;28;45421;-88
2022/11/19 13:45:14;;;;;;;;;2.33;0.67;;;;;16.05;59.58;-19638.63;5032333;28;45489;-88
2022/11/19 13:48:15;;;;;;;;;1.00;1.00;;;;;15.24;59.86;-19617.31;5016530;28;48093;-92
2022/11/19 13:50:44;;;;;;;;;1.00;1.00;;;;;16.03;59.73;-19638.25;5026026;28;45495;-87
2022/11/19 13:53:29;;;;;;;;;1.75;1.00;;;;;14.86;60.38;-19607.38;5023997;28;45757;-85
2022/11/19 13:55:59;;;;;;;;;2.00;1.67;;;;;15.69;60.50;-19629.13;5019376;28;45706;-87
2022/11/19 13:58:42;;;;;;;;;0.33;0.33;;;;;15.74;60.02;-19630.59;5013999;28;48032;-85
2022/11/19 14:01:37;;;;;;;;;1.00;1.00;;;;;14.86;60.41;-19607.50;5025968;28;45371;-85
2022/11/19 14:04:36;;;;;;;;;1.67;1.67;;;;;15.55;60.69;-19625.63;5027616;28;45405;-85
2022/11/19 14:07:21;;;;;;;;;2.33;1.33;;;;;15.47;61.00;-19623.47;5034687;28;45601;-85
2022/11/19 14:10:00;;;;;;;;;1.33;1.33;;;;;15.03;61.11;-19611.81;5029094;28;45626;-87
2022/11/19 14:12:34;;;;;;;;;1.00;1.00;;;;;15.35;61.80;-19620.25;5033778;28;45645;-85
2022/11/19 14:27:16;;;;;;;;;1.67;1.67;;;;;15.33;61.89;-19619.72;5019646;28;46239;-86
2022/11/19 14:29:44;;;;;;;;;1.00;1.00;;;;;15.30;61.89;-19619.06;5028272;28;45522;-84
2022/11/19 14:32:09;;;;;;;;;0.67;0.67;;;;;15.28;62.14;-19618.38;5024881;28;47153;-83
2022/11/19 14:35:27;;;;;;;;;3.33;0.67;;;;;14.71;62.05;-19603.50;5037200;28;45558;-96
2022/11/19 14:38:10;;;;;;;;;0.00;0.00;;;;;14.87;61.38;-19607.66;5033974;28;45739;-89
2022/11/19 14:41:17;;;;;;;;;0.67;0.67;;;;;15.15;61.55;-19615.03;5034395;28;46545;-89
2022/11/19 14:44:13;;;;;;;;;1.00;0.67;;;;;15.09;62.05;-19613.56;5028332;28;46696;-89
2022/11/19 14:46:47;;;;;;;;;2.67;0.67;;;;;15.05;62.56;-19612.47;5016733;28;45919;-84
2022/11/19 14:49:39;;;;;;;;;1.67;1.67;;;;;13.58;62.15;-19573.94;5037085;28;45562;-86
2022/11/19 14:58:26;;;;;;;;;3.00;3.00;;;;;14.93;63.30;-19609.25;5174053;22;45326;-96
2022/11/19 16:42:31;;;;;;;;;;;;;;;;;;;;;
2022/11/19 18:31:17;;;;;;;;;18.00;17.00;;;;;12.85;71.40;-19554.84;5502623;23;46216;31
2022/11/19 18:34:48;;;;;;;;;;;;;;;;;;;;;
2022/11/19 20:52:16;;;;;;;;;;;;;;;;;;;;;
2022/11/19 21:11:45;;;;;;;;;17.33;17.33;;;;;12.00;73.23;-19532.47;5681531;23;46368;-93
2022/11/19 21:32:59;;;;;;;;;;;;;;;;;;;;;
2022/11/19 21:38:01;;;;;;;;;16.00;13.00;;;;;11.07;72.63;-19507.81;5157098;23;45551;-89
2022/11/19 21:43:46;;;;;;;;;15.00;15.00;;;;;10.31;72.62;-19488.00;5043437;23;45582;-89
2022/11/19 21:48:59;;;;;;;;;15.33;15.33;;;;;11.45;72.03;-19517.78;4906331;23;46056;-93
2022/11/19 21:52:31;;;;;;;;;;;;;;;;;;;;;
2022/11/19 21:55:00;;;;;;;;;15.67;15.33;;;;;12.10;72.76;-19534.91;4828300;29;60950;-91
2022/11/19 21:57:34;;;;;;;;;16.00;14.00;;;;;10.94;72.17;-19504.59;4880206;29;47482;-91